| Record Date MM/DD/YYYY | Record Julian Date NNN day of the year | Air Temperature Max (Degrees Fahrenheit F) | Time Max Air Temperature HH:MM:SS This is the time of max air temperature standard time. | Air Temperature Min (Degrees Fahrenheit F) | Time Min Air Temperature HH:MM:SS This is the time of min air temperature standard time. | Air Temperature Observed (Degrees Fahrenheit F) This is an instantaneous reading for air temperature at 7:00:00 standard time. | Relative Humidity Max (Percent) | Time Max Relative Humidity HH:MM:SS This is the time of max relative humidity standard time. | Relative Humidity Min (Percent) | Time Min Relative Humidity HH:MM:SS This is the time of min relative humidity standard time. | Relative Humidity Observed (Percent) This is an instantaneous reading at 7:00:00 standard time. | Precipitation (Inches n.nn) total rain fall that occurred for the day. | Pan Evaporation (Inches n.nn) total evaporation that occured for the day. | Wind Run (Miles) Wind travel for the day. | Wind Speed (Miles Per Hour) Resultant / Average speed for the day. | Wind Direction (Degrees) Resultant Direction for the day | Solar Radiation (Langley's) that occurred for the day. | Soil Temperature Max at 2 inch depth (Degrees Fahrenheit F) that occurred during the day. | Time Max Soil temperature at 2 inches HH:MM:SS This is the time of max 2 inch soil temperature standard time. | Soil Temperature Min at 2 inch depth (Degrees Fahrenheit F) that occurred during the day. | Time Min Soil temperature at 2 inches HH:MM:SS This is the time of min 2 inch soil temperature standard time. | Soil Temperature Observed at 2 inch depth (Degrees Fahrenheit F) This is an instantaneous reading 2 inch soil temperature at 7:00:00 standard time. | Soil Temperature Max at 4 inch depth (Degrees Fahrenheit F) that occurred during the day. | Time Max Soil temperature at 4 inches HH:MM:SS This is the time of max 4 inch soil temperature standard time. | Soil Temperature Min at 4 inch depth (Degrees Fahrenheit F) that occurred during the day. | Time Min Soil temperature at 4 inches HH:MM:SS This is the time of min 4 inch soil temperature standard time. | Soil Temperature Observed at 4 inch depth (Degrees Fahrenheit F) This is an instantaneous reading 4 inch soil temperature at 7:00:00 standard time. | DD50 Degree Days 50 Fahrenheit. | Adjusted DD50 Degree Days 50 Fahrenheit adjusted for latitude. | DD60 Degree Days 60 Fahrenheit. |
|---|---|---|---|---|---|---|---|---|---|---|---|---|---|---|---|---|---|---|---|---|---|---|---|---|---|---|---|---|---|---|
| 04/02/2026 | 92 | 84 | 15:33:04 | 67 | 3:52:04 | 69 | 92 | 4:35:01 | 54 | 15:34:01 | 89 | 0 | 280 | 11.7 | 182 | 261 | 77 | 0:00:00 | 70 | 70 | 76 | 17:25:04 | 71 | 7:04:05 | 71 | 25.5 | 26.45 | 15.5 | ||
| 04/03/2026 | 93 | 88 | 13:17:04 | 67 | 2:22:04 | 68 | 94 | 6:44:02 | 45 | 13:18:01 | 93 | 0 | 203 | 8.5 | 177 | 429 | 83 | 19:38:00 | 70 | 70 | 81 | 15:29:04 | 71 | 7:06:04 | 71 | 27.5 | 26.98 | 17.5 | ||
| 04/04/2026 | 94 | 80 | 13:58:01 | 57 | 23:35:05 | 70 | 99 | 21:50:02 | 66 | 14:18:02 | 88 | 0.63 | 139 | 5.8 | 218 | 151 | 78 | 0:00:00 | 68 | 72 | 76 | 14:52:05 | 70 | 23:56:05 | 73 | 18.5 | 19.51 | 8.5 | ||
| 04/05/2026 | 95 | 64 | 16:07:04 | 50 | 6:03:01 | 51 | 89 | 0:38:04 | 46 | 16:08:04 | 76 | 0 | 188 | 7.8 | 6 | 559 | 75 | 0:00:00 | 62 | 62 | 72 | 15:58:03 | 64 | 9:02:00 | 65 | 7 | 8.04 | 0 | ||
| 04/06/2026 | 96 | 70 | 15:52:02 | 45 | 5:33:05 | 49 | 91 | 5:42:00 | 27 | 15:10:01 | 78 | 0 | 126 | 5.3 | 21 | 529 | 73 | 0:01:00 | 58 | 58 | 71 | 16:03:03 | 60 | 7:56:01 | 60 | 7.5 | 8.58 | 0 | ||
| 04/07/2026 | 97 | 76 | 15:50:04 | 48 | 0:00:01 | 54 | 83 | 0:04:00 | 29 | 15:51:00 | 73 | 0 | 137 | 5.7 | 51 | 543 | 73 | 20:20:00 | 57 | 57 | 71 | 15:48:03 | 59 | 7:35:03 | 59 | 12 | 13.11 | 2 | ||
| 04/08/2026 | 98 | 81 | 13:30:02 | 52 | 4:17:05 | 57 | 76 | 4:19:03 | 25 | 16:31:03 | 65 | 0 | 150 | 6.2 | 122 | 552 | 74 | 20:07:00 | 59 | 59 | 73 | 16:24:05 | 61 | 7:24:03 | 61 | 16.5 | 17.64 | 6.5 | ||
| 04/09/2026 | 99 | 81 | 15:55:02 | 53 | 5:26:01 | 60 | 77 | 5:27:03 | 36 | 15:55:05 | 63 | 0 | 138 | 5.7 | 139 | 553 | 78 | 19:26:02 | 60 | 60 | 76 | 16:18:02 | 62 | 7:54:01 | 62 | 17 | 18.17 | 7 | ||
| 04/10/2026 | 100 | 84 | 15:01:00 | 54 | 5:28:05 | 62 | 87 | 5:57:03 | 32 | 16:18:02 | 75 | 0 | 87 | 3.6 | 150 | 526 | 81 | 19:31:00 | 63 | 63 | 79 | 16:11:02 | 65 | 7:44:00 | 65 | 19 | 20.2 | 9 | ||
| 04/11/2026 | 101 | 85 | 15:34:02 | 57 | 5:08:01 | 66 | 90 | 5:26:04 | 35 | 15:42:02 | 78 | 0 | 66 | 2.8 | 153 | 348 | 78 | 20:08:02 | 65 | 66 | 76 | 16:32:05 | 67 | 7:34:04 | 67 | 21 | 22.23 | 11 | ||
| 04/12/2026 | 102 | 85 | 13:57:05 | 58 | 5:07:05 | 64 | 88 | 5:50:04 | 34 | 13:23:01 | 78 | 0 | 212 | 8.8 | 189 | 465 | 79 | 20:52:03 | 65 | 65 | 77 | 15:47:03 | 67 | 7:44:04 | 67 | 21.5 | 22.76 | 11.5 | ||
| 04/13/2026 | 103 | 82 | 12:11:02 | 68 | 6:29:05 | 69 | 83 | 6:31:00 | 51 | 17:18:01 | 82 | 0 | 201 | 8.4 | 192 | 367 | 80 | 19:42:00 | 70 | 70 | 78 | 16:22:03 | 70 | 7:09:05 | 70 | 25 | 26.3 | 15 | ||
| 04/14/2026 | 104 | 86 | 15:03:03 | 65 | 5:32:04 | 69 | 89 | 5:38:01 | 45 | 15:22:00 | 84 | 0 | 184 | 7.7 | 197 | 531 | 84 | 20:05:04 | 69 | 69 | 81 | 16:14:03 | 70 | 7:51:00 | 70 | 25.5 | 26.83 | 15.5 | ||
| 04/15/2026 | 105 | 86 | 13:58:03 | 66 | 5:46:03 | 68 | 85 | 5:57:00 | 38 | 14:25:02 | 80 | 0 | 190 | 7.9 | 196 | 515 | 85 | 19:33:04 | 71 | 71 | 83 | 15:38:05 | 72 | 7:50:00 | 72 | 26 | 27.36 | 16 | ||
| 04/16/2026 | 106 | 87 | 15:32:00 | 66 | 5:30:00 | 69 | 90 | 5:27:00 | 42 | 12:13:01 | 85 | 0 | 128 | 5.3 | 205 | 465 | 86 | 19:21:02 | 72 | 72 | 83 | 16:31:04 | 73 | 7:26:00 | 73 | 26.5 | 27.39 | 16.5 | ||
| 04/17/2026 | 107 | 88 | 13:58:04 | 66 | 4:58:05 | 69 | 91 | 5:21:00 | 41 | 14:27:01 | 86 | 0 | 175 | 7.3 | 194 | 463 | 85 | 19:23:04 | 72 | 72 | 83 | 15:46:03 | 73 | 7:14:02 | 73 | 27 | 27.41 | 17 | ||
| 04/18/2026 | 108 | 77 | 9:29:00 | 50 | 21:47:03 | 69 | 96 | 16:02:04 | 71 | 9:18:02 | 84 | 0.09 | 128 | 5.3 | 270 | 177 | 79 | 0:00:00 | 67 | 73 | 78 | 15:46:00 | 69 | 23:58:01 | 74 | 13.5 | 14.94 | 3.5 | ||
| 04/19/2026 | 109 | 72 | 15:32:03 | 46 | 5:45:01 | 48 | 97 | 1:42:01 | 25 | 15:49:05 | 91 | 0 | 87 | 3.6 | 8 | 565 | 79 | 19:11:02 | 62 | 62 | 77 | 16:09:05 | 65 | 7:43:03 | 65 | 9 | 10.47 | 0 | ||
| 04/20/2026 | 110 | 79 | 15:40:03 | 41 | 4:54:00 | 57 | 95 | 3:47:03 | 23 | 15:41:02 | 75 | 0 | 58 | 2.4 | 166 | 567 | 79 | 19:33:03 | 60 | 60 | 78 | 16:51:01 | 63 | 7:21:04 | 63 | 10 | 11.5 | 0 | ||
| 04/21/2026 | 111 | 81 | 14:19:04 | 46 | 5:20:04 | 59 | 91 | 5:38:03 | 19 | 14:29:02 | 67 | 0 | 99 | 4.1 | 197 | 471 | 78 | 19:59:04 | 62 | 63 | 76 | 17:11:04 | 65 | 7:17:05 | 65 | 13.5 | 15.03 | 3.5 | ||
| 04/22/2026 | 112 | 84 | 14:38:00 | 58 | 0:13:04 | 65 | 78 | 3:21:03 | 27 | 15:18:05 | 67 | 0 | 104 | 4.3 | 174 | 492 | 83 | 19:31:03 | 67 | 67 | 81 | 16:18:05 | 68 | 7:04:05 | 68 | 21 | 22.56 | 11 | ||
| 04/23/2026 | 113 | 86 | 14:12:00 | 64 | 5:52:05 | 67 | 86 | 6:37:03 | 33 | 14:40:01 | 85 | 0 | 182 | 7.6 | 180 | 512 | 85 | 20:07:00 | 70 | 70 | 83 | 16:03:05 | 71 | 6:53:05 | 71 | 25 | 26.58 | 15 | ||
| 04/24/2026 | 114 | 82 | 10:41:03 | 60 | 13:03:04 | 67 | 99 | 23:58:00 | 58 | 10:42:00 | 87 | 1.74 | 165 | 6.9 | 172 | 224 | 80 | 0:00:00 | 68 | 72 | 78 | 12:53:00 | 69 | 23:58:03 | 73 | 21 | 22.61 | 11 | ||
| 04/25/2026 | 115 | 80 | 16:46:02 | 60 | 4:33:04 | 63 | 100 | 6:04:05 | 59 | 16:15:01 | 99 | 0.25 | 56 | 2.3 | 119 | 464 | 82 | 20:13:02 | 66 | 66 | 80 | 16:58:04 | 67 | 7:14:02 | 67 | 20 | 21.64 | 10 | ||
| 04/26/2026 | 116 | 84 | 13:25:05 | 65 | 5:01:03 | 69 | 99 | 5:12:05 | 55 | 13:18:05 | 91 | 0.23 | 90 | 3.8 | 158 | 475 | 85 | 20:20:05 | 71 | 71 | 83 | 16:03:05 | 72 | 8:19:01 | 72 | 24.5 | 26.16 | 14.5 | ||
| 04/27/2026 | 117 | 84 | 14:31:00 | 70 | 4:48:01 | 71 | 96 | 5:41:00 | 70 | 23:08:03 | 94 | 0 | 193 | 8.0 | 190 | 316 | 81 | 0:03:04 | 73 | 73 | 79 | 16:12:05 | 74 | 7:37:00 | 74 | 27 | 27.69 | 17 | ||
| 04/28/2026 | 118 | 79 | 12:27:01 | 65 | 21:22:02 | 72 | 97 | 21:12:04 | 75 | 0:16:05 | 90 | 0.35 | 150 | 6.3 | 196 | 176 | 78 | 0:05:03 | 73 | 73 | 77 | 16:51:05 | 74 | 23:57:00 | 74 | 22 | 23.71 | 12 | ||
| 04/29/2026 | 119 | 71 | 11:53:01 | 61 | 23:59:04 | 71 | 98 | 4:20:04 | 77 | 13:13:04 | 96 | 0 | 119 | 5.0 | 6 | 187 | 75 | 0:00:01 | 70 | 72 | 74 | 14:57:03 | 71 | 23:58:05 | 72 | 16 | 17.74 | 6 | ||
| 04/30/2026 | 120 | 68 | 12:04:02 | 57 | 22:40:05 | 58 | 96 | 1:52:00 | 58 | 13:11:04 | 82 | 0.04 | 158 | 6.6 | 29 | 347 | 73 | 0:03:01 | 66 | 67 | 72 | 14:14:03 | 67 | 23:59:04 | 68 | 12.5 | 14.26 | 2.5 | ||
| 05/01/2026 | 121 | 63 | 14:49:04 | 54 | 4:43:03 | 56 | 90 | 19:00:00 | 57 | 14:31:03 | 83 | 0 | 106 | 4.4 | 26 | 164 | 67 | 0:01:05 | 63 | 64 | 67 | 0:01:05 | 64 | 23:59:02 | 65 | 8.5 | 10.28 | 0 | ||
| Average | 79.9 | 57.87 | 63.53 | 90.73 | 45.1 | 82.13 | 0.11 | 143.3 | 413.13 | 79.1 | 66.3 | 66.97 | 77.3 | 67.8 | 68.33 | 18.88 | 20.14 | 9.15 | ||||||||||||
| Total | 3.33 | 566.5 | 604.13 | 274.5 |